Terminal Aerodrome Forecast
Issued by NWS

Home | Current Version | Previous Version | Text Only | Print | Product List | Glossary On
Versions: 1 2 3 4 5 6 7 8 9 10 11 12 13 14 15 16 17 18 19 20 21 22
000
FTUS44 KOUN 300520
TAFGAG
TAF
KGAG 300520Z 3006/0106 15008KT P6SM BKN200
     FM300800 16011KT P6SM VCTS SCT070CB SCT100 BKN200
     FM301400 19015G20KT P6SM SCT050 BKN250=

USA.gov is the U.S. government's official web portal to all federal, state and local government web resources and services.